Time;durP1;ratioP1;P1;durP2;ratioP2;P2;SDS_P1;SDS_P2;PMS_P1;PMS_P2;Temp;Humidity;BMP_temperature;BMP_pressure;BME280_temperature;BME280_humidity;BME280_pressure;Samples;Min_cycle;Max_cycle;Signal;HPM_P1;HPM_P2
2022/02/08 00:00:39;;;;;;;;;13.33;10.00;;;;;;;;5078015;28;9546;-79
2022/02/08 00:03:05;;;;;;;;;10.33;10.00;;;;;;;;5078892;28;8782;-80
2022/02/08 00:05:30;;;;;;;;;10.67;10.67;;;;;;;;5079432;28;8811;-79
2022/02/08 00:07:56;;;;;;;;;13.33;10.67;;;;;;;;5078647;28;8837;-80
2022/02/08 00:10:23;;;;;;;;;15.00;10.67;;;;;;;;5078469;28;9156;-79
2022/02/08 00:12:48;;;;;;;;;10.33;7.67;;;;;;;;5079332;28;8935;-79
2022/02/08 00:15:13;;;;;;;;;14.33;13.00;;;;;;;;5078436;28;21464;-80
2022/02/08 00:17:39;;;;;;;;;10.00;7.00;;;;;;;;5078790;28;21533;-79
2022/02/08 00:20:07;;;;;;;;;13.00;11.00;;;;;;;;5059404;28;21503;-79
2022/02/08 00:22:33;;;;;;;;;13.67;11.00;;;;;;;;5078486;28;21824;-79
2022/02/08 00:24:58;;;;;;;;;7.67;7.67;;;;;;;;5079235;28;9493;-79
2022/02/08 00:27:23;;;;;;;;;13.33;9.33;;;;;;;;5078508;28;23487;-79
2022/02/08 00:29:48;;;;;;;;;5.67;5.67;;;;;;;;5059719;28;22031;-79
2022/02/08 00:32:14;;;;;;;;;10.67;7.67;;;;;;;;5078553;28;21575;-79
2022/02/08 00:34:39;;;;;;;;;5.67;5.67;;;;;;;;5077936;28;21506;-79
2022/02/08 00:37:05;;;;;;;;;7.00;6.33;;;;;;;;5078267;28;21406;-79
2022/02/08 00:39:31;;;;;;;;;4.00;4.00;;;;;;;;5078887;28;12697;-78
2022/02/08 00:42:04;;;;;;;;;3.33;3.33;;;;;;;;5079051;28;12741;-79
2022/02/08 00:44:45;;;;;;;;;4.00;4.00;;;;;;;;5078349;28;11444;-80
2022/02/08 00:47:28;;;;;;;;;4.00;4.00;;;;;;;;5078179;28;11453;-79
2022/02/08 00:49:53;;;;;;;;;6.67;5.00;;;;;;;;5078550;28;8800;-79
2022/02/08 00:52:18;;;;;;;;;7.00;4.00;;;;;;;;5078483;28;10328;-78
2022/02/08 00:54:48;;;;;;;;;5.67;2.00;;;;;;;;5078065;28;10870;-78
2022/02/08 00:57:14;;;;;;;;;5.00;4.00;;;;;;;;5078464;28;12028;-79
2022/02/08 00:59:39;;;;;;;;;4.33;3.33;;;;;;;;5077671;28;9629;-79
2022/02/08 01:02:05;;;;;;;;;5.33;2.67;;;;;;;;5077928;28;12450;-79
2022/02/08 01:04:30;;;;;;;;;4.00;4.00;;;;;;;;5077874;28;11816;-78
2022/02/08 01:06:57;;;;;;;;;6.33;5.00;;;;;;;;5078105;28;11478;-79
2022/02/08 01:09:34;;;;;;;;;2.67;2.67;;;;;;;;5078597;28;10357;-80
2022/02/08 01:12:00;;;;;;;;;5.00;4.67;;;;;;;;5078370;28;11562;-79
2022/02/08 01:14:25;;;;;;;;;4.00;4.00;;;;;;;;5078215;28;10360;-79
2022/02/08 01:16:52;;;;;;;;;2.00;2.00;;;;;;;;5077873;28;11315;-79
2022/02/08 01:19:20;;;;;;;;;2.67;2.67;;;;;;;;5060291;28;9323;-79
2022/02/08 01:21:45;;;;;;;;;4.00;4.00;;;;;;;;5077734;28;8875;-78
2022/02/08 01:24:11;;;;;;;;;7.00;6.00;;;;;;;;5077946;28;11854;-80
2022/02/08 01:26:45;;;;;;;;;6.67;5.33;;;;;;;;5078214;28;8930;-80
2022/02/08 01:39:36;;;;;;;;;6.00;4.00;;;;;;;;5059612;28;10085;-79
2022/02/08 01:42:22;;;;;;;;;4.00;4.00;;;;;;;;5077602;28;11590;-79
2022/02/08 01:47:21;;;;;;;;;4.00;4.00;;;;;;;;5077525;28;8875;-79
2022/02/08 01:49:58;;;;;;;;;3.00;3.00;;;;;;;;5078264;28;8785;-80
2022/02/08 01:52:24;;;;;;;;;4.00;4.00;;;;;;;;5078498;28;9031;-79
2022/02/08 01:54:50;;;;;;;;;6.33;4.00;;;;;;;;5060914;28;10733;-79
2022/02/08 01:57:15;;;;;;;;;4.00;3.00;;;;;;;;5078988;28;9508;-80
2022/02/08 01:59:40;;;;;;;;;4.00;3.00;;;;;;;;5077593;28;10685;-80
2022/02/08 02:02:08;;;;;;;;;3.00;3.00;;;;;;;;5060216;28;8844;-79
2022/02/08 02:04:34;;;;;;;;;4.33;4.00;;;;;;;;5078336;28;8797;-79
2022/02/08 02:07:00;;;;;;;;;2.00;2.00;;;;;;;;5078162;28;10273;-79
2022/02/08 02:09:25;;;;;;;;;5.00;5.00;;;;;;;;5081040;28;10416;-80
2022/02/08 02:11:55;;;;;;;;;5.00;4.67;;;;;;;;5081055;28;8793;-79
2022/02/08 02:14:20;;;;;;;;;4.00;4.00;;;;;;;;5081127;28;8874;-79
2022/02/08 02:16:59;;;;;;;;;2.00;2.00;;;;;;;;5062523;28;11545;-80
2022/02/08 02:19:27;;;;;;;;;4.33;4.00;;;;;;;;5081561;28;9286;-78
2022/02/08 02:21:53;;;;;;;;;8.00;6.00;;;;;;;;5079807;28;10599;-79
2022/02/08 02:24:18;;;;;;;;;4.33;4.33;;;;;;;;5081416;28;12203;-78
2022/02/08 02:26:44;;;;;;;;;5.00;4.00;;;;;;;;5081398;28;11465;-79
2022/02/08 02:29:12;;;;;;;;;1.00;1.00;;;;;;;;5081125;28;11311;-79
2022/02/08 02:31:37;;;;;;;;;5.00;4.00;;;;;;;;5080684;28;8839;-80
2022/02/08 02:34:03;;;;;;;;;8.00;5.00;;;;;;;;5061787;28;10977;-79
2022/02/08 02:36:28;;;;;;;;;6.67;5.00;;;;;;;;5079921;28;9051;-79
2022/02/08 02:38:54;;;;;;;;;4.00;4.00;;;;;;;;5080395;28;8813;-80
2022/02/08 02:41:19;;;;;;;;;4.00;4.00;;;;;;;;5081098;28;10290;-77
2022/02/08 02:43:45;;;;;;;;;5.00;5.00;;;;;;;;5081275;28;8797;-78
2022/02/08 02:46:10;;;;;;;;;8.00;5.67;;;;;;;;5080622;28;8788;-78
2022/02/08 02:48:35;;;;;;;;;4.33;4.33;;;;;;;;5079964;28;11793;-79
2022/02/08 02:51:01;;;;;;;;;5.00;4.00;;;;;;;;5080492;28;11380;-79
2022/02/08 02:53:30;;;;;;;;;6.67;4.67;;;;;;;;5080622;28;11517;-79
2022/02/08 02:55:55;;;;;;;;;7.33;5.00;;;;;;;;5061252;28;11723;-80
2022/02/08 02:58:24;;;;;;;;;4.00;4.00;;;;;;;;5061108;28;13376;-80
2022/02/08 03:01:10;;;;;;;;;2.00;2.00;;;;;;;;5060867;28;13070;-79
2022/02/08 03:20:13;;;;;;;;;6.00;2.00;;;;;;;;5067232;28;9276;-81
2022/02/08 03:22:38;;;;;;;;;4.33;4.00;;;;;;;;5079870;28;9652;-80
2022/02/08 03:25:03;;;;;;;;;2.00;2.00;;;;;;;;5079392;28;10283;-80
2022/02/08 03:27:29;;;;;;;;;5.00;4.00;;;;;;;;5079257;28;10268;-81
2022/02/08 03:29:54;;;;;;;;;2.00;2.00;;;;;;;;5079123;28;9019;-81
2022/02/08 03:32:20;;;;;;;;;1.00;1.00;;;;;;;;5079570;28;8862;-79
2022/02/08 03:34:46;;;;;;;;;2.00;2.00;;;;;;;;5079667;28;8939;-80
2022/02/08 03:37:11;;;;;;;;;4.00;4.00;;;;;;;;5061285;28;8927;-79
2022/02/08 03:39:40;;;;;;;;;5.00;4.00;;;;;;;;5079776;28;8956;-80
2022/02/08 03:42:15;;;;;;;;;2.00;2.00;;;;;;;;5079550;28;8859;-80
2022/02/08 03:44:44;;;;;;;;;6.00;4.00;;;;;;;;5060764;28;11554;-81
2022/02/08 03:47:09;;;;;;;;;4.00;4.00;;;;;;;;5079137;28;10035;-80
2022/02/08 03:49:35;;;;;;;;;5.00;4.00;;;;;;;;5079145;28;8896;-81
2022/02/08 03:52:04;;;;;;;;;2.00;2.00;;;;;;;;5078835;28;8809;-81
2022/02/08 03:54:30;;;;;;;;;4.33;3.33;;;;;;;;5079025;28;9315;-79
2022/02/08 03:56:55;;;;;;;;;2.00;2.00;;;;;;;;5060393;28;11827;-79
2022/02/08 03:59:20;;;;;;;;;1.67;1.67;;;;;;;;5078694;28;11738;-80
2022/02/08 04:06:50;;;;;;;;;4.00;1.00;;;;;;;;5079106;28;11391;-80
2022/02/08 04:09:17;;;;;;;;;2.00;2.00;;;;;;;;5059989;28;9546;-79
2022/02/08 04:11:54;;;;;;;;;2.00;2.00;;;;;;;;5078986;28;8877;-80
2022/02/08 04:17:18;;;;;;;;;0.33;0.33;;;;;;;;5079506;28;11354;-81
2022/02/08 04:20:00;;;;;;;;;4.00;3.33;;;;;;;;5060690;28;13529;-80
2022/02/08 04:39:00;;;;;;;;;1.00;1.00;;;;;;;;5078863;28;8773;-80
2022/02/08 04:41:39;;;;;;;;;2.00;1.00;;;;;;;;5078069;28;8852;-80
2022/02/08 04:46:48;;;;;;;;;4.00;2.00;;;;;;;;5078189;28;8765;-79
2022/02/08 04:49:14;;;;;;;;;4.00;2.00;;;;;;;;5078359;28;8749;-80
2022/02/08 04:51:44;;;;;;;;;4.75;4.00;;;;;;;;5060344;28;8939;-80
2022/02/08 04:54:17;;;;;;;;;4.00;4.00;;;;;;;;5078205;28;11297;-81
2022/02/08 04:59:21;;;;;;;;;4.00;2.00;;;;;;;;5078316;28;9596;-79
2022/02/08 16:07:20;;;;;;;;;10.00;10.00;;;;;;;;5115367;28;11562;-84
2022/02/08 16:09:52;;;;;;;;;8.75;7.50;;;;;;;;5097180;28;11537;-77
2022/02/08 16:22:56;;;;;;;;;11.00;10.25;;;;;;;;5112725;28;22527;-76
2022/02/08 16:33:20;;;;;;;;;14.25;12.00;;;;;;;;5112354;28;22430;-75
2022/02/08 16:57:42;;;;;;;;;10.50;9.00;;;;;;;;5072488;28;11654;-74
2022/02/08 17:00:09;;;;;;;;;9.50;8.00;;;;;;;;5108791;28;22629;-75
2022/02/08 17:02:38;;;;;;;;;8.00;8.00;;;;;;;;5112621;28;22265;-74
2022/02/08 17:05:04;;;;;;;;;7.00;6.00;;;;;;;;5110492;28;11552;-75
2022/02/08 17:07:35;;;;;;;;;7.50;6.00;;;;;;;;5113121;28;11557;-76
2022/02/08 17:10:04;;;;;;;;;6.00;6.00;;;;;;;;5112966;28;8842;-75
2022/02/08 17:49:54;;;;;;;;;10.00;9.00;;;;;;;;5098928;28;12147;-76
2022/02/08 17:52:22;;;;;;;;;21.25;19.25;;;;;;;;5098600;28;22806;-76
2022/02/08 17:54:47;;;;;;;;;22.25;18.25;;;;;;;;5099167;28;22683;-77
2022/02/08 17:57:13;;;;;;;;;18.50;16.00;;;;;;;;5099674;28;11494;-76
2022/02/08 17:59:39;;;;;;;;;20.75;14.00;;;;;;;;5098857;28;13228;-77
2022/02/08 18:02:06;;;;;;;;;14.50;14.25;;;;;;;;5099530;28;12325;-77
2022/02/08 18:04:31;;;;;;;;;14.00;13.00;;;;;;;;5099287;28;13600;-77
2022/02/08 18:06:56;;;;;;;;;17.75;13.00;;;;;;;;5080729;28;12004;-78
2022/02/08 18:09:24;;;;;;;;;16.50;16.50;;;;;;;;5099697;28;8877;-79
2022/02/08 18:11:49;;;;;;;;;16.25;15.25;;;;;;;;5099858;28;11461;-80
2022/02/08 18:14:19;;;;;;;;;9.75;8.75;;;;;;;;5099359;28;11463;-81
2022/02/08 18:16:50;;;;;;;;;19.00;16.00;;;;;;;;5099560;28;22592;-80
2022/02/08 18:19:18;;;;;;;;;12.25;10.50;;;;;;;;5099135;28;22949;-78
2022/02/08 18:22:07;;;;;;;;;16.00;14.50;;;;;;;;5098935;28;11589;-78
2022/02/08 18:24:48;;;;;;;;;17.75;15.00;;;;;;;;5096783;28;11510;-77
2022/02/08 18:54:30;;;;;;;;;19.75;19.75;;;;;;;;5098627;28;11449;-78
2022/02/08 18:57:32;;;;;;;;;21.67;18.00;;;;;;;;5098453;28;11584;-77
2022/02/08 19:18:33;;;;;;;;;26.33;24.67;;;;;;;;5077899;28;13527;-77
2022/02/08 19:23:30;;;;;;;;;23.00;21.67;;;;;;;;5077649;28;13289;-78
2022/02/08 19:25:56;;;;;;;;;28.00;26.67;;;;;;;;5077780;28;13455;-77
2022/02/08 19:28:21;;;;;;;;;30.00;26.33;;;;;;;;5077380;28;8815;-78
2022/02/08 19:30:47;;;;;;;;;24.00;23.33;;;;;;;;5058501;28;13736;-78
2022/02/08 19:33:12;;;;;;;;;27.67;25.00;;;;;;;;5077907;28;10894;-77
2022/02/08 19:35:41;;;;;;;;;29.00;26.67;;;;;;;;5077603;28;11595;-77
2022/02/08 19:38:11;;;;;;;;;28.33;25.00;;;;;;;;5077720;28;13084;-77
2022/02/08 19:40:40;;;;;;;;;22.33;20.33;;;;;;;;5078228;28;12805;-79
2022/02/08 19:43:06;;;;;;;;;27.33;26.67;;;;;;;;5077630;28;11729;-77
2022/02/08 19:45:39;;;;;;;;;31.67;27.00;;;;;;;;5077625;28;11693;-74
2022/02/08 19:48:04;;;;;;;;;26.00;23.33;;;;;;;;5077523;28;15199;-77
2022/02/08 19:50:31;;;;;;;;;26.00;25.33;;;;;;;;5078094;28;13294;-75
2022/02/08 19:52:57;;;;;;;;;28.67;26.67;;;;;;;;5081142;28;8824;-75
2022/02/08 19:56:03;;;;;;;;;30.33;25.67;;;;;;;;5096267;28;11587;-75
2022/02/08 20:09:17;;;;;;;;;36.67;32.33;;;;;;;;5106858;27;1445152;-75
2022/02/08 20:11:44;;;;;;;;;35.33;33.00;;;;;;;;5142993;27;22586;-74
2022/02/08 20:14:12;;;;;;;;;33.00;28.33;;;;;;;;5144556;27;11632;-75
2022/02/08 20:16:37;;;;;;;;;35.00;29.33;;;;;;;;5146199;27;13115;-75
2022/02/08 20:19:04;;;;;;;;;29.00;29.00;;;;;;;;5142601;27;8813;-75
2022/02/08 20:21:31;;;;;;;;;33.33;31.67;;;;;;;;5138648;27;13807;-75
2022/02/08 20:24:02;;;;;;;;;34.33;29.67;;;;;;;;5143563;27;13308;-75
2022/02/08 20:26:42;;;;;;;;;31.33;28.33;;;;;;;;5123240;27;11600;-75
2022/02/08 20:29:08;;;;;;;;;30.33;29.00;;;;;;;;5141471;27;11621;-74
2022/02/08 20:31:33;;;;;;;;;30.00;27.67;;;;;;;;5143241;27;11866;-74
2022/02/08 20:33:59;;;;;;;;;27.00;26.67;;;;;;;;5144967;27;10544;-76
2022/02/08 20:36:24;;;;;;;;;30.67;28.33;;;;;;;;5142965;27;10367;-74
2022/02/08 20:38:49;;;;;;;;;26.33;24.67;;;;;;;;5143635;27;14514;-74
2022/02/08 20:41:21;;;;;;;;;30.33;25.33;;;;;;;;5144490;27;13392;-74
2022/02/08 20:43:47;;;;;;;;;28.67;27.00;;;;;;;;5141252;27;13383;-75
2022/02/08 20:46:14;;;;;;;;;30.00;26.33;;;;;;;;5143849;27;13341;-75
2022/02/08 20:48:41;;;;;;;;;30.00;26.67;;;;;;;;5144367;27;13951;-74
2022/02/08 20:51:08;;;;;;;;;29.67;26.00;;;;;;;;5143852;27;8780;-76
2022/02/08 20:53:37;;;;;;;;;30.00;27.00;;;;;;;;5143231;27;13539;-74
2022/02/08 20:56:25;;;;;;;;;30.33;28.67;;;;;;;;5145100;27;12332;-74
2022/02/08 20:59:05;;;;;;;;;30.00;26.67;;;;;;;;5142403;27;10819;-74
2022/02/08 21:01:34;;;;;;;;;31.00;27.00;;;;;;;;5142072;27;10170;-75
2022/02/08 21:04:05;;;;;;;;;33.33;32.00;;;;;;;;5142615;27;11497;-74
2022/02/08 21:06:31;;;;;;;;;35.00;33.00;;;;;;;;5144864;27;12531;-76
2022/02/08 21:08:57;;;;;;;;;35.33;33.67;;;;;;;;5144211;27;10453;-76
2022/02/08 21:11:28;;;;;;;;;32.00;30.00;;;;;;;;5120712;27;8907;-75
2022/02/08 21:14:04;;;;;;;;;26.00;25.33;;;;;;;;5112464;28;11531;-75
2022/02/08 21:16:31;;;;;;;;;36.33;30.00;;;;;;;;5112912;28;13925;-76
2022/02/08 21:18:59;;;;;;;;;31.67;31.00;;;;;;;;5110499;28;14635;-76
2022/02/08 21:21:25;;;;;;;;;33.33;33.33;;;;;;;;5114772;28;12209;-76
2022/02/08 21:23:52;;;;;;;;;27.00;27.00;;;;;;;;5120940;28;11726;-74
2022/02/08 21:26:23;;;;;;;;;32.00;27.67;;;;;;;;5120350;28;13443;-76
2022/02/08 21:31:36;;;;;;;;;33.33;31.00;;;;;;;;5120303;28;12688;-75
2022/02/08 21:50:34;;;;;;;;;26.67;25.00;;;;;;;;5109371;28;9428;-74
2022/02/08 21:52:52;;;;;;;;;27.00;23.00;;;;;;;;5099276;28;9901;-75
2022/02/08 21:55:21;;;;;;;;;30.00;26.67;;;;;;;;5099459;28;11295;-75
2022/02/08 21:57:53;;;;;;;;;32.67;23.00;;;;;;;;5099757;28;13438;-75
2022/02/08 22:00:22;;;;;;;;;27.00;23.67;;;;;;;;5099503;28;11468;-75
2022/02/08 22:02:51;;;;;;;;;25.33;23.00;;;;;;;;5099509;28;13379;-74
2022/02/08 22:05:17;;;;;;;;;32.00;24.67;;;;;;;;5099880;28;11768;-76
2022/02/08 22:07:50;;;;;;;;;27.33;25.33;;;;;;;;5098893;28;13301;-76
2022/02/08 22:15:46;;;;;;;;;31.00;26.33;;;;;;;;5099702;28;13316;-75
2022/02/08 22:16:11;;;;;;;;;26.00;25.00;;;;;;;;5099773;28;13262;-75
2022/02/08 22:18:47;;;;;;;;;31.33;27.00;;;;;;;;5099799;28;11572;-75
2022/02/08 22:21:22;;;;;;;;;29.33;26.00;;;;;;;;5104586;28;12267;-76
2022/02/08 22:24:18;;;;;;;;;28.00;24.67;;;;;;;;5119430;28;11897;-75
2022/02/08 22:29:44;;;;;;;;;26.33;26.00;;;;;;;;5119529;28;11707;-75
2022/02/08 22:32:15;;;;;;;;;29.00;26.00;;;;;;;;5118984;28;12615;-75
2022/02/08 22:34:53;;;;;;;;;27.00;24.67;;;;;;;;5120214;28;8773;-75
2022/02/08 22:37:23;;;;;;;;;28.33;24.67;;;;;;;;5100046;28;13573;-74
2022/02/08 22:42:23;;;;;;;;;29.00;27.67;;;;;;;;5119334;28;14508;-74
2022/02/08 22:44:54;;;;;;;;;26.00;22.67;;;;;;;;5119242;28;13732;-74
2022/02/08 22:47:20;;;;;;;;;27.67;23.33;;;;;;;;5119558;28;8915;-74
2022/02/08 22:49:46;;;;;;;;;27.67;25.33;;;;;;;;5119455;28;12634;-74
2022/02/08 22:52:12;;;;;;;;;25.00;24.67;;;;;;;;5118924;28;8791;-74
2022/02/08 22:54:39;;;;;;;;;24.67;23.33;;;;;;;;5117618;28;12508;-78
2022/02/08 22:57:05;;;;;;;;;16.00;16.00;;;;;;;;5119559;28;11668;-77
2022/02/08 22:59:30;;;;;;;;;22.67;19.00;;;;;;;;5119601;28;13858;-78
2022/02/08 23:01:56;;;;;;;;;17.00;16.00;;;;;;;;5119809;28;12295;-76
2022/02/08 23:04:24;;;;;;;;;17.67;17.00;;;;;;;;5118877;28;12347;-76
2022/02/08 23:06:52;;;;;;;;;16.00;16.00;;;;;;;;5119403;28;9571;-77
2022/02/08 23:09:35;;;;;;;;;16.00;15.33;;;;;;;;5100735;28;12833;-77
2022/02/08 23:14:31;;;;;;;;;12.67;12.67;;;;;;;;5118931;28;11413;-77
2022/02/08 23:38:52;;;;;;;;;16.33;14.67;;;;;;;;5118887;28;8923;-77
2022/02/08 23:41:17;;;;;;;;;13.33;11.67;;;;;;;;5100211;28;13070;-77
2022/02/08 23:43:45;;;;;;;;;6.33;4.67;;;;;;;;5118444;28;8891;-77
2022/02/08 23:46:12;;;;;;;;;11.67;11.67;;;;;;;;5118619;28;22233;-77
2022/02/08 23:48:45;;;;;;;;;17.67;13.33;;;;;;;;5118305;28;22662;-77
2022/02/08 23:51:18;;;;;;;;;17.67;14.00;;;;;;;;5100260;28;13680;-76
2022/02/08 23:53:56;;;;;;;;;17.33;17.00;;;;;;;;5119187;28;9121;-76
2022/02/08 23:56:40;;;;;;;;;13.00;13.00;;;;;;;;5119031;28;9592;-76
2022/02/08 23:59:12;;;;;;;;;15.00;13.00;;;;;;;;5118815;28;10605;-76
